Airport View

Enter AWOS ICAO identifier for current METAR.

ex. KFNL

K28J 250210Z AUTO 11006KT 10SM SCT024 BKN029 23/19 A3000 RMK AO2

25 May 2020 02:14

Frequency: 119.925

Phone: 386-312-2212

Other Area AWOS: K42J - KSGJ - KFIN - KGNV

TAF KGNV 242320Z 2500/2524 10011KT P6SM SCT030 BKN200 FM251300 08006KT P6SM VCSH SCT025 OVC040 FM251600 09012G18KT 5SM -SHRA VCTS SCT020 OVC030CB